sensor_id;sensor_type;location;lat;lon;timestamp;P1;durP1;ratioP1;P2;durP2;ratioP2
40847;SDS011;26570;50.962;5.340;2023-06-26T00:05:14;4.53;;;3.10;;
40847;SDS011;26570;50.962;5.340;2023-06-26T00:12:23;4.88;;;3.90;;
40847;SDS011;26570;50.962;5.340;2023-06-26T00:15:44;10.48;;;4.15;;
40847;SDS011;26570;50.962;5.340;2023-06-26T00:19:16;4.20;;;2.97;;
40847;SDS011;26570;50.962;5.340;2023-06-26T00:22:38;3.67;;;2.95;;
40847;SDS011;26570;50.962;5.340;2023-06-26T00:26:16;3.40;;;2.70;;
40847;SDS011;26570;50.962;5.340;2023-06-26T00:29:35;5.18;;;2.67;;
40847;SDS011;26570;50.962;5.340;2023-06-26T00:32:42;3.42;;;2.33;;
40847;SDS011;26570;50.962;5.340;2023-06-26T00:35:53;4.30;;;1.80;;
40847;SDS011;26570;50.962;5.340;2023-06-26T00:39:57;4.88;;;2.40;;
40847;SDS011;26570;50.962;5.340;2023-06-26T00:42:57;4.15;;;2.25;;
40847;SDS011;26570;50.962;5.340;2023-06-26T00:46:29;2.67;;;1.98;;
40847;SDS011;26570;50.962;5.340;2023-06-26T00:49:48;3.17;;;1.92;;
40847;SDS011;26570;50.962;5.340;2023-06-26T00:52:48;2.50;;;2.03;;
40847;SDS011;26570;50.962;5.340;2023-06-26T00:56:18;2.60;;;2.15;;
40847;SDS011;26570;50.962;5.340;2023-06-26T00:59:41;3.63;;;2.20;;
40847;SDS011;26570;50.962;5.340;2023-06-26T01:24:31;3.55;;;1.75;;
40847;SDS011;26570;50.962;5.340;2023-06-26T01:28:02;4.88;;;1.10;;
40847;SDS011;26570;50.962;5.340;2023-06-26T01:31:10;2.35;;;1.50;;
40847;SDS011;26570;50.962;5.340;2023-06-26T01:34:10;3.10;;;1.75;;
40847;SDS011;26570;50.962;5.340;2023-06-26T01:37:48;8.10;;;2.45;;
40847;SDS011;26570;50.962;5.340;2023-06-26T01:41:02;3.83;;;2.60;;
40847;SDS011;26570;50.962;5.340;2023-06-26T01:44:14;5.13;;;1.63;;
40847;SDS011;26570;50.962;5.340;2023-06-26T01:47:18;2.20;;;1.67;;
40847;SDS011;26570;50.962;5.340;2023-06-26T01:50:12;4.20;;;2.03;;
40847;SDS011;26570;50.962;5.340;2023-06-26T01:53:43;2.93;;;1.40;;
40847;SDS011;26570;50.962;5.340;2023-06-26T01:57:05;5.90;;;1.52;;
40847;SDS011;26570;50.962;5.340;2023-06-26T02:00:16;2.30;;;1.30;;
40847;SDS011;26570;50.962;5.340;2023-06-26T02:03:29;4.50;;;1.48;;
40847;SDS011;26570;50.962;5.340;2023-06-26T02:06:49;2.88;;;1.45;;
40847;SDS011;26570;50.962;5.340;2023-06-26T02:09:38;4.03;;;1.73;;
40847;SDS011;26570;50.962;5.340;2023-06-26T02:13:00;4.95;;;1.75;;
40847;SDS011;26570;50.962;5.340;2023-06-26T02:15:51;3.55;;;1.25;;
40847;SDS011;26570;50.962;5.340;2023-06-26T02:18:41;2.22;;;1.58;;
40847;SDS011;26570;50.962;5.340;2023-06-26T02:21:56;2.88;;;1.90;;
40847;SDS011;26570;50.962;5.340;2023-06-26T02:25:05;3.65;;;2.13;;
40847;SDS011;26570;50.962;5.340;2023-06-26T02:28:19;3.80;;;2.10;;
40847;SDS011;26570;50.962;5.340;2023-06-26T02:31:09;4.13;;;2.03;;
40847;SDS011;26570;50.962;5.340;2023-06-26T02:34:30;5.82;;;1.90;;
40847;SDS011;26570;50.962;5.340;2023-06-26T02:37:20;4.53;;;1.40;;
40847;SDS011;26570;50.962;5.340;2023-06-26T02:40:45;4.22;;;1.08;;
40847;SDS011;26570;50.962;5.340;2023-06-26T02:44:25;4.10;;;1.17;;
40847;SDS011;26570;50.962;5.340;2023-06-26T02:47:24;3.50;;;1.00;;
40847;SDS011;26570;50.962;5.340;2023-06-26T02:50:51;4.83;;;1.30;;
40847;SDS011;26570;50.962;5.340;2023-06-26T02:54:39;4.77;;;1.30;;
40847;SDS011;26570;50.962;5.340;2023-06-26T02:57:52;4.93;;;1.58;;
40847;SDS011;26570;50.962;5.340;2023-06-26T03:00:45;2.88;;;1.75;;
40847;SDS011;26570;50.962;5.340;2023-06-26T03:03:42;4.33;;;1.30;;
40847;SDS011;26570;50.962;5.340;2023-06-26T03:06:32;4.20;;;1.85;;
40847;SDS011;26570;50.962;5.340;2023-06-26T03:09:29;4.18;;;1.45;;
40847;SDS011;26570;50.962;5.340;2023-06-26T03:12:41;5.68;;;1.42;;
40847;SDS011;26570;50.962;5.340;2023-06-26T03:15:39;2.92;;;1.33;;
40847;SDS011;26570;50.962;5.340;2023-06-26T03:18:54;3.55;;;1.10;;
40847;SDS011;26570;50.962;5.340;2023-06-26T03:22:07;3.50;;;2.10;;
40847;SDS011;26570;50.962;5.340;2023-06-26T03:25:25;5.77;;;1.00;;
40847;SDS011;26570;50.962;5.340;2023-06-26T03:28:18;3.30;;;1.13;;
40847;SDS011;26570;50.962;5.340;2023-06-26T03:31:34;4.77;;;1.30;;
40847;SDS011;26570;50.962;5.340;2023-06-26T03:34:27;2.97;;;0.90;;
40847;SDS011;26570;50.962;5.340;2023-06-26T03:37:17;8.43;;;1.00;;
40847;SDS011;26570;50.962;5.340;2023-06-26T03:40:05;4.47;;;1.40;;
40847;SDS011;26570;50.962;5.340;2023-06-26T03:43:26;4.70;;;1.10;;
40847;SDS011;26570;50.962;5.340;2023-06-26T03:46:19;7.40;;;1.10;;
40847;SDS011;26570;50.962;5.340;2023-06-26T03:49:25;4.70;;;1.30;;
40847;SDS011;26570;50.962;5.340;2023-06-26T03:52:23;3.40;;;1.20;;
40847;SDS011;26570;50.962;5.340;2023-06-26T03:55:11;3.13;;;1.07;;
40847;SDS011;26570;50.962;5.340;2023-06-26T03:58:05;3.20;;;1.30;;
40847;SDS011;26570;50.962;5.340;2023-06-26T04:01:15;2.50;;;0.90;;
40847;SDS011;26570;50.962;5.340;2023-06-26T04:04:19;5.97;;;0.97;;
40847;SDS011;26570;50.962;5.340;2023-06-26T04:07:22;2.90;;;1.00;;
40847;SDS011;26570;50.962;5.340;2023-06-26T04:10:52;4.70;;;1.20;;
40847;SDS011;26570;50.962;5.340;2023-06-26T04:14:11;3.07;;;0.97;;
40847;SDS011;26570;50.962;5.340;2023-06-26T04:17:34;2.43;;;1.00;;
40847;SDS011;26570;50.962;5.340;2023-06-26T04:21:07;3.03;;;1.27;;
40847;SDS011;26570;50.962;5.340;2023-06-26T04:24:24;3.20;;;0.90;;
40847;SDS011;26570;50.962;5.340;2023-06-26T04:27:30;4.47;;;1.10;;
40847;SDS011;26570;50.962;5.340;2023-06-26T04:31:10;4.17;;;0.93;;
40847;SDS011;26570;50.962;5.340;2023-06-26T04:34:10;4.30;;;0.97;;
40847;SDS011;26570;50.962;5.340;2023-06-26T04:37:54;5.37;;;0.97;;
40847;SDS011;26570;50.962;5.340;2023-06-26T04:41:20;4.60;;;1.60;;
40847;SDS011;26570;50.962;5.340;2023-06-26T04:44:23;3.00;;;1.17;;
40847;SDS011;26570;50.962;5.340;2023-06-26T04:47:13;2.90;;;1.00;;
40847;SDS011;26570;50.962;5.340;2023-06-26T04:50:06;5.53;;;1.10;;
40847;SDS011;26570;50.962;5.340;2023-06-26T04:52:55;5.93;;;1.10;;
40847;SDS011;26570;50.962;5.340;2023-06-26T04:55:43;5.90;;;1.30;;
40847;SDS011;26570;50.962;5.340;2023-06-26T04:58:30;5.90;;;1.10;;
40847;SDS011;26570;50.962;5.340;2023-06-26T05:01:42;5.83;;;1.07;;
40847;SDS011;26570;50.962;5.340;2023-06-26T05:04:33;3.13;;;1.20;;
40847;SDS011;26570;50.962;5.340;2023-06-26T05:07:29;5.30;;;1.47;;
40847;SDS011;26570;50.962;5.340;2023-06-26T05:10:16;3.97;;;1.20;;
40847;SDS011;26570;50.962;5.340;2023-06-26T05:13:16;7.10;;;1.40;;
40847;SDS011;26570;50.962;5.340;2023-06-26T05:16:04;6.37;;;1.00;;
40847;SDS011;26570;50.962;5.340;2023-06-26T05:19:16;4.63;;;1.03;;
40847;SDS011;26570;50.962;5.340;2023-06-26T05:22:07;6.47;;;1.20;;
40847;SDS011;26570;50.962;5.340;2023-06-26T05:25:22;12.33;;;1.30;;
40847;SDS011;26570;50.962;5.340;2023-06-26T05:28:14;5.67;;;0.93;;
40847;SDS011;26570;50.962;5.340;2023-06-26T05:31:05;10.33;;;1.40;;
40847;SDS011;26570;50.962;5.340;2023-06-26T05:33:53;5.67;;;1.10;;
40847;SDS011;26570;50.962;5.340;2023-06-26T05:36:52;8.77;;;1.27;;
40847;SDS011;26570;50.962;5.340;2023-06-26T05:39:49;8.73;;;1.20;;
40847;SDS011;26570;50.962;5.340;2023-06-26T05:42:37;9.03;;;1.43;;
40847;SDS011;26570;50.962;5.340;2023-06-26T05:45:30;9.82;;;1.63;;
40847;SDS011;26570;50.962;5.340;2023-06-26T05:48:29;9.87;;;1.40;;
40847;SDS011;26570;50.962;5.340;2023-06-26T05:51:19;7.00;;;1.40;;
40847;SDS011;26570;50.962;5.340;2023-06-26T05:54:07;10.73;;;1.20;;
40847;SDS011;26570;50.962;5.340;2023-06-26T05:56:57;9.60;;;1.13;;
40847;SDS011;26570;50.962;5.340;2023-06-26T05:59:47;11.17;;;1.60;;
40847;SDS011;26570;50.962;5.340;2023-06-26T06:02:35;11.70;;;1.20;;
40847;SDS011;26570;50.962;5.340;2023-06-26T06:05:31;6.73;;;1.20;;
40847;SDS011;26570;50.962;5.340;2023-06-26T06:08:41;7.30;;;0.90;;
40847;SDS011;26570;50.962;5.340;2023-06-26T06:11:29;13.35;;;1.77;;
40847;SDS011;26570;50.962;5.340;2023-06-26T06:14:19;8.82;;;1.42;;
40847;SDS011;26570;50.962;5.340;2023-06-26T06:17:07;12.02;;;1.20;;
40847;SDS011;26570;50.962;5.340;2023-06-26T06:19:55;8.35;;;1.00;;
40847;SDS011;26570;50.962;5.340;2023-06-26T06:23:07;7.72;;;0.73;;
40847;SDS011;26570;50.962;5.340;2023-06-26T06:25:59;5.60;;;0.80;;
40847;SDS011;26570;50.962;5.340;2023-06-26T06:29:12;9.10;;;0.70;;
40847;SDS011;26570;50.962;5.340;2023-06-26T06:32:00;4.25;;;0.60;;
40847;SDS011;26570;50.962;5.340;2023-06-26T06:34:49;9.95;;;1.25;;
40847;SDS011;26570;50.962;5.340;2023-06-26T06:37:37;9.82;;;1.05;;
40847;SDS011;26570;50.962;5.340;2023-06-26T06:40:24;8.30;;;0.60;;
40847;SDS011;26570;50.962;5.340;2023-06-26T06:43:12;19.00;;;3.00;;
40847;SDS011;26570;50.962;5.340;2023-06-26T06:46:00;6.63;;;0.70;;
40847;SDS011;26570;50.962;5.340;2023-06-26T06:48:48;6.03;;;0.60;;
40847;SDS011;26570;50.962;5.340;2023-06-26T06:51:39;4.88;;;0.68;;
40847;SDS011;26570;50.962;5.340;2023-06-26T06:54:27;3.15;;;0.60;;
40847;SDS011;26570;50.962;5.340;2023-06-26T06:57:15;8.55;;;0.70;;
40847;SDS011;26570;50.962;5.340;2023-06-26T07:00:06;9.73;;;0.80;;
40847;SDS011;26570;50.962;5.340;2023-06-26T07:02:57;7.43;;;0.82;;
40847;SDS011;26570;50.962;5.340;2023-06-26T07:05:46;7.07;;;0.60;;
40847;SDS011;26570;50.962;5.340;2023-06-26T07:08:38;4.85;;;0.90;;
40847;SDS011;26570;50.962;5.340;2023-06-26T07:11:29;5.70;;;0.77;;
40847;SDS011;26570;50.962;5.340;2023-06-26T07:14:17;5.35;;;0.55;;
40847;SDS011;26570;50.962;5.340;2023-06-26T07:17:11;4.18;;;0.70;;
40847;SDS011;26570;50.962;5.340;2023-06-26T07:20:10;6.47;;;0.60;;
40847;SDS011;26570;50.962;5.340;2023-06-26T07:22:59;4.32;;;0.70;;
40847;SDS011;26570;50.962;5.340;2023-06-26T07:25:51;10.55;;;1.30;;
40847;SDS011;26570;50.962;5.340;2023-06-26T07:28:40;6.82;;;0.60;;
40847;SDS011;26570;50.962;5.340;2023-06-26T07:32:04;6.35;;;0.60;;
40847;SDS011;26570;50.962;5.340;2023-06-26T07:34:53;4.47;;;0.70;;
40847;SDS011;26570;50.962;5.340;2023-06-26T07:37:51;4.47;;;0.50;;
40847;SDS011;26570;50.962;5.340;2023-06-26T07:40:38;7.57;;;0.60;;
40847;SDS011;26570;50.962;5.340;2023-06-26T07:43:26;7.45;;;0.50;;
40847;SDS011;26570;50.962;5.340;2023-06-26T07:46:41;9.13;;;0.57;;
40847;SDS011;26570;50.962;5.340;2023-06-26T07:49:32;5.47;;;0.50;;
40847;SDS011;26570;50.962;5.340;2023-06-26T07:52:25;6.20;;;0.70;;
40847;SDS011;26570;50.962;5.340;2023-06-26T07:55:17;4.18;;;0.60;;
40847;SDS011;26570;50.962;5.340;2023-06-26T07:58:07;9.05;;;1.45;;
40847;SDS011;26570;50.962;5.340;2023-06-26T08:00:55;8.75;;;0.50;;
40847;SDS011;26570;50.962;5.340;2023-06-26T08:03:43;2.58;;;0.40;;
40847;SDS011;26570;50.962;5.340;2023-06-26T08:06:32;4.45;;;0.50;;
40847;SDS011;26570;50.962;5.340;2023-06-26T08:09:28;3.20;;;0.47;;
40847;SDS011;26570;50.962;5.340;2023-06-26T08:12:19;2.85;;;0.40;;
40847;SDS011;26570;50.962;5.340;2023-06-26T08:15:07;3.70;;;0.45;;
40847;SDS011;26570;50.962;5.340;2023-06-26T08:17:57;4.57;;;0.50;;
40847;SDS011;26570;50.962;5.340;2023-06-26T08:20:46;6.80;;;0.40;;
40847;SDS011;26570;50.962;5.340;2023-06-26T08:23:33;3.40;;;0.40;;
40847;SDS011;26570;50.962;5.340;2023-06-26T08:26:25;4.40;;;0.45;;
40847;SDS011;26570;50.962;5.340;2023-06-26T08:29:13;2.67;;;0.50;;
40847;SDS011;26570;50.962;5.340;2023-06-26T08:32:04;4.05;;;0.50;;
40847;SDS011;26570;50.962;5.340;2023-06-26T08:34:52;3.10;;;0.40;;
40847;SDS011;26570;50.962;5.340;2023-06-26T08:37:41;4.47;;;0.50;;
40847;SDS011;26570;50.962;5.340;2023-06-26T08:40:29;3.10;;;0.40;;
40847;SDS011;26570;50.962;5.340;2023-06-26T08:43:18;6.93;;;0.40;;
40847;SDS011;26570;50.962;5.340;2023-06-26T08:46:06;4.60;;;0.45;;
40847;SDS011;26570;50.962;5.340;2023-06-26T08:49:04;8.70;;;0.80;;
40847;SDS011;26570;50.962;5.340;2023-06-26T08:52:10;5.32;;;0.57;;
40847;SDS011;26570;50.962;5.340;2023-06-26T08:55:10;5.13;;;0.50;;
40847;SDS011;26570;50.962;5.340;2023-06-26T08:57:59;7.85;;;0.50;;
40847;SDS011;26570;50.962;5.340;2023-06-26T09:00:47;6.28;;;0.50;;
40847;SDS011;26570;50.962;5.340;2023-06-26T09:03:35;3.83;;;0.40;;
40847;SDS011;26570;50.962;5.340;2023-06-26T09:06:26;3.25;;;0.60;;
40847;SDS011;26570;50.962;5.340;2023-06-26T09:09:14;5.15;;;0.40;;
40847;SDS011;26570;50.962;5.340;2023-06-26T09:12:02;2.50;;;0.40;;
40847;SDS011;26570;50.962;5.340;2023-06-26T09:14:51;5.00;;;0.40;;
40847;SDS011;26570;50.962;5.340;2023-06-26T09:17:40;6.65;;;0.85;;
40847;SDS011;26570;50.962;5.340;2023-06-26T09:20:29;6.15;;;0.40;;
40847;SDS011;26570;50.962;5.340;2023-06-26T09:23:21;2.47;;;0.73;;
40847;SDS011;26570;50.962;5.340;2023-06-26T09:26:08;2.28;;;0.30;;
40847;SDS011;26570;50.962;5.340;2023-06-26T09:29:00;3.40;;;0.40;;
40847;SDS011;26570;50.962;5.340;2023-06-26T09:31:48;4.43;;;0.30;;
40847;SDS011;26570;50.962;5.340;2023-06-26T09:34:40;4.45;;;0.60;;
40847;SDS011;26570;50.962;5.340;2023-06-26T09:37:32;4.63;;;0.30;;
40847;SDS011;26570;50.962;5.340;2023-06-26T09:40:19;5.43;;;0.22;;
40847;SDS011;26570;50.962;5.340;2023-06-26T09:43:09;3.08;;;0.25;;
40847;SDS011;26570;50.962;5.340;2023-06-26T09:46:12;3.30;;;0.30;;
40847;SDS011;26570;50.962;5.340;2023-06-26T09:51:54;4.63;;;0.30;;
40847;SDS011;26570;50.962;5.340;2023-06-26T09:54:42;3.00;;;0.20;;
40847;SDS011;26570;50.962;5.340;2023-06-26T09:57:55;2.08;;;0.20;;
40847;SDS011;26570;50.962;5.340;2023-06-26T10:00:45;6.18;;;0.95;;
40847;SDS011;26570;50.962;5.340;2023-06-26T10:03:35;3.50;;;0.25;;
40847;SDS011;26570;50.962;5.340;2023-06-26T10:06:27;4.53;;;0.22;;
40847;SDS011;26570;50.962;5.340;2023-06-26T10:09:19;0.80;;;0.20;;
40847;SDS011;26570;50.962;5.340;2023-06-26T10:12:17;2.30;;;0.20;;
40847;SDS011;26570;50.962;5.340;2023-06-26T10:15:33;3.00;;;0.20;;
40847;SDS011;26570;50.962;5.340;2023-06-26T10:18:23;5.75;;;0.65;;
40847;SDS011;26570;50.962;5.340;2023-06-26T10:21:14;1.65;;;0.52;;
40847;SDS011;26570;50.962;5.340;2023-06-26T10:24:02;1.35;;;0.20;;
40847;SDS011;26570;50.962;5.340;2023-06-26T10:26:52;1.33;;;0.40;;
40847;SDS011;26570;50.962;5.340;2023-06-26T10:30:06;1.75;;;0.20;;
40847;SDS011;26570;50.962;5.340;2023-06-26T10:32:59;4.72;;;0.22;;
40847;SDS011;26570;50.962;5.340;2023-06-26T10:35:50;3.38;;;0.20;;
40847;SDS011;26570;50.962;5.340;2023-06-26T10:42:08;1.25;;;0.20;;
40847;SDS011;26570;50.962;5.340;2023-06-26T10:45:08;1.98;;;0.20;;
40847;SDS011;26570;50.962;5.340;2023-06-26T10:47:58;3.53;;;0.20;;
40847;SDS011;26570;50.962;5.340;2023-06-26T10:50:49;1.02;;;0.20;;
40847;SDS011;26570;50.962;5.340;2023-06-26T10:53:38;1.63;;;0.20;;
40847;SDS011;26570;50.962;5.340;2023-06-26T10:56:43;2.20;;;0.20;;
40847;SDS011;26570;50.962;5.340;2023-06-26T10:59:34;1.20;;;0.20;;
40847;SDS011;26570;50.962;5.340;2023-06-26T11:02:47;2.08;;;0.20;;
40847;SDS011;26570;50.962;5.340;2023-06-26T11:05:45;5.68;;;0.17;;
40847;SDS011;26570;50.962;5.340;2023-06-26T11:09:08;1.75;;;0.20;;
40847;SDS011;26570;50.962;5.340;2023-06-26T11:11:57;2.42;;;0.20;;
40847;SDS011;26570;50.962;5.340;2023-06-26T11:14:49;2.27;;;0.27;;
40847;SDS011;26570;50.962;5.340;2023-06-26T11:17:37;4.75;;;0.17;;
40847;SDS011;26570;50.962;5.340;2023-06-26T11:20:25;2.78;;;0.20;;
40847;SDS011;26570;50.962;5.340;2023-06-26T11:23:14;2.28;;;0.20;;
40847;SDS011;26570;50.962;5.340;2023-06-26T11:26:17;3.08;;;0.20;;
40847;SDS011;26570;50.962;5.340;2023-06-26T11:29:07;3.58;;;0.22;;
40847;SDS011;26570;50.962;5.340;2023-06-26T11:32:03;2.05;;;0.20;;
40847;SDS011;26570;50.962;5.340;2023-06-26T11:34:52;1.52;;;0.20;;
40847;SDS011;26570;50.962;5.340;2023-06-26T11:37:40;2.13;;;0.20;;
40847;SDS011;26570;50.962;5.340;2023-06-26T11:40:30;0.68;;;0.10;;
40847;SDS011;26570;50.962;5.340;2023-06-26T11:43:21;0.47;;;0.10;;
40847;SDS011;26570;50.962;5.340;2023-06-26T11:46:10;2.75;;;0.20;;
40847;SDS011;26570;50.962;5.340;2023-06-26T11:49:04;3.53;;;0.20;;
40847;SDS011;26570;50.962;5.340;2023-06-26T11:51:53;3.28;;;0.20;;
40847;SDS011;26570;50.962;5.340;2023-06-26T11:54:41;18.00;;;0.30;;
40847;SDS011;26570;50.962;5.340;2023-06-26T11:57:33;1.65;;;0.20;;
40847;SDS011;26570;50.962;5.340;2023-06-26T12:00:23;2.55;;;0.22;;
40847;SDS011;26570;50.962;5.340;2023-06-26T12:03:10;1.05;;;0.20;;
40847;SDS011;26570;50.962;5.340;2023-06-26T12:05:58;2.45;;;0.20;;
40847;SDS011;26570;50.962;5.340;2023-06-26T12:08:47;1.48;;;0.20;;
40847;SDS011;26570;50.962;5.340;2023-06-26T12:11:40;2.35;;;0.10;;
40847;SDS011;26570;50.962;5.340;2023-06-26T12:14:30;2.85;;;0.35;;
40847;SDS011;26570;50.962;5.340;2023-06-26T12:17:22;1.17;;;0.20;;
40847;SDS011;26570;50.962;5.340;2023-06-26T12:20:22;1.67;;;0.20;;
40847;SDS011;26570;50.962;5.340;2023-06-26T12:23:15;4.18;;;0.20;;
40847;SDS011;26570;50.962;5.340;2023-06-26T12:26:19;2.58;;;0.30;;
40847;SDS011;26570;50.962;5.340;2023-06-26T12:29:09;1.55;;;0.20;;
40847;SDS011;26570;50.962;5.340;2023-06-26T12:31:58;1.17;;;0.20;;
40847;SDS011;26570;50.962;5.340;2023-06-26T12:34:57;1.23;;;0.20;;
40847;SDS011;26570;50.962;5.340;2023-06-26T12:37:47;1.27;;;0.20;;
40847;SDS011;26570;50.962;5.340;2023-06-26T12:40:44;5.90;;;0.20;;
40847;SDS011;26570;50.962;5.340;2023-06-26T12:43:31;2.75;;;0.25;;
40847;SDS011;26570;50.962;5.340;2023-06-26T12:46:34;3.45;;;0.43;;
40847;SDS011;26570;50.962;5.340;2023-06-26T12:49:34;2.67;;;0.20;;
40847;SDS011;26570;50.962;5.340;2023-06-26T12:52:21;2.05;;;0.20;;
40847;SDS011;26570;50.962;5.340;2023-06-26T12:55:09;1.35;;;0.20;;
40847;SDS011;26570;50.962;5.340;2023-06-26T12:57:58;2.00;;;0.20;;
40847;SDS011;26570;50.962;5.340;2023-06-26T13:00:46;3.10;;;0.20;;
40847;SDS011;26570;50.962;5.340;2023-06-26T13:03:35;1.30;;;0.20;;
40847;SDS011;26570;50.962;5.340;2023-06-26T13:06:25;0.73;;;0.20;;
40847;SDS011;26570;50.962;5.340;2023-06-26T13:09:14;2.05;;;0.30;;
40847;SDS011;26570;50.962;5.340;2023-06-26T13:12:02;2.42;;;0.40;;
40847;SDS011;26570;50.962;5.340;2023-06-26T13:14:49;0.60;;;0.20;;
40847;SDS011;26570;50.962;5.340;2023-06-26T13:17:39;3.47;;;0.20;;
40847;SDS011;26570;50.962;5.340;2023-06-26T13:20:30;5.82;;;0.20;;
40847;SDS011;26570;50.962;5.340;2023-06-26T13:23:18;1.02;;;0.10;;
40847;SDS011;26570;50.962;5.340;2023-06-26T13:26:06;2.17;;;0.20;;
40847;SDS011;26570;50.962;5.340;2023-06-26T13:28:55;1.38;;;0.20;;
40847;SDS011;26570;50.962;5.340;2023-06-26T13:31:43;4.55;;;0.20;;
40847;SDS011;26570;50.962;5.340;2023-06-26T13:34:32;4.22;;;0.20;;
40847;SDS011;26570;50.962;5.340;2023-06-26T13:37:21;3.17;;;0.20;;
40847;SDS011;26570;50.962;5.340;2023-06-26T13:40:09;3.80;;;0.20;;
40847;SDS011;26570;50.962;5.340;2023-06-26T13:42:55;2.10;;;0.20;;
40847;SDS011;26570;50.962;5.340;2023-06-26T13:45:43;2.88;;;1.15;;
40847;SDS011;26570;50.962;5.340;2023-06-26T13:48:35;1.30;;;0.20;;
40847;SDS011;26570;50.962;5.340;2023-06-26T13:51:24;4.13;;;0.20;;
40847;SDS011;26570;50.962;5.340;2023-06-26T13:54:22;1.38;;;0.20;;
40847;SDS011;26570;50.962;5.340;2023-06-26T13:57:10;1.85;;;0.20;;
40847;SDS011;26570;50.962;5.340;2023-06-26T13:59:58;3.90;;;0.30;;
40847;SDS011;26570;50.962;5.340;2023-06-26T14:02:48;2.33;;;0.20;;
40847;SDS011;26570;50.962;5.340;2023-06-26T14:05:36;2.05;;;0.20;;
40847;SDS011;26570;50.962;5.340;2023-06-26T14:08:25;1.33;;;0.20;;
40847;SDS011;26570;50.962;5.340;2023-06-26T14:11:14;1.38;;;0.30;;
40847;SDS011;26570;50.962;5.340;2023-06-26T14:14:02;2.05;;;0.30;;
40847;SDS011;26570;50.962;5.340;2023-06-26T14:16:49;1.95;;;0.20;;
40847;SDS011;26570;50.962;5.340;2023-06-26T14:19:37;1.13;;;0.20;;
40847;SDS011;26570;50.962;5.340;2023-06-26T14:22:26;1.98;;;0.20;;
40847;SDS011;26570;50.962;5.340;2023-06-26T14:25:14;3.72;;;0.20;;
40847;SDS011;26570;50.962;5.340;2023-06-26T14:28:02;0.88;;;0.22;;
40847;SDS011;26570;50.962;5.340;2023-06-26T14:30:51;3.30;;;0.20;;
40847;SDS011;26570;50.962;5.340;2023-06-26T14:33:39;1.63;;;0.20;;
40847;SDS011;26570;50.962;5.340;2023-06-26T14:36:27;1.65;;;0.20;;
40847;SDS011;26570;50.962;5.340;2023-06-26T14:39:17;2.67;;;0.20;;
40847;SDS011;26570;50.962;5.340;2023-06-26T14:42:05;1.58;;;0.40;;
40847;SDS011;26570;50.962;5.340;2023-06-26T14:44:53;2.08;;;0.30;;
40847;SDS011;26570;50.962;5.340;2023-06-26T14:47:41;4.15;;;0.20;;
40847;SDS011;26570;50.962;5.340;2023-06-26T14:50:30;1.98;;;0.20;;
40847;SDS011;26570;50.962;5.340;2023-06-26T14:53:17;1.42;;;0.30;;
40847;SDS011;26570;50.962;5.340;2023-06-26T14:56:05;3.63;;;0.20;;
40847;SDS011;26570;50.962;5.340;2023-06-26T14:58:55;8.85;;;0.30;;
40847;SDS011;26570;50.962;5.340;2023-06-26T15:01:43;3.03;;;0.10;;
40847;SDS011;26570;50.962;5.340;2023-06-26T15:04:31;2.95;;;0.30;;
40847;SDS011;26570;50.962;5.340;2023-06-26T15:07:19;2.40;;;0.20;;
40847;SDS011;26570;50.962;5.340;2023-06-26T15:10:07;3.78;;;0.20;;
40847;SDS011;26570;50.962;5.340;2023-06-26T15:12:56;1.85;;;0.20;;
40847;SDS011;26570;50.962;5.340;2023-06-26T15:15:46;4.07;;;0.20;;
40847;SDS011;26570;50.962;5.340;2023-06-26T15:18:35;2.40;;;0.20;;
40847;SDS011;26570;50.962;5.340;2023-06-26T15:21:24;3.13;;;0.20;;
40847;SDS011;26570;50.962;5.340;2023-06-26T15:24:13;2.85;;;0.20;;
40847;SDS011;26570;50.962;5.340;2023-06-26T15:27:01;1.40;;;0.20;;
40847;SDS011;26570;50.962;5.340;2023-06-26T15:29:49;3.40;;;0.20;;
40847;SDS011;26570;50.962;5.340;2023-06-26T15:32:37;0.77;;;0.22;;
40847;SDS011;26570;50.962;5.340;2023-06-26T15:35:24;1.40;;;0.20;;
40847;SDS011;26570;50.962;5.340;2023-06-26T15:38:13;1.98;;;0.20;;
40847;SDS011;26570;50.962;5.340;2023-06-26T15:41:01;2.70;;;0.28;;
40847;SDS011;26570;50.962;5.340;2023-06-26T15:43:49;2.45;;;0.30;;
40847;SDS011;26570;50.962;5.340;2023-06-26T15:46:41;1.60;;;0.20;;
40847;SDS011;26570;50.962;5.340;2023-06-26T15:49:28;1.25;;;0.20;;
40847;SDS011;26570;50.962;5.340;2023-06-26T15:52:16;4.32;;;0.60;;
40847;SDS011;26570;50.962;5.340;2023-06-26T15:55:05;2.40;;;0.25;;
40847;SDS011;26570;50.962;5.340;2023-06-26T15:57:54;0.80;;;0.20;;
40847;SDS011;26570;50.962;5.340;2023-06-26T16:00:41;1.02;;;0.20;;
40847;SDS011;26570;50.962;5.340;2023-06-26T16:03:29;1.30;;;0.20;;
40847;SDS011;26570;50.962;5.340;2023-06-26T16:06:17;1.98;;;0.30;;
40847;SDS011;26570;50.962;5.340;2023-06-26T16:09:07;1.70;;;0.30;;
40847;SDS011;26570;50.962;5.340;2023-06-26T16:11:57;1.95;;;0.20;;
40847;SDS011;26570;50.962;5.340;2023-06-26T16:14:45;1.30;;;0.20;;
40847;SDS011;26570;50.962;5.340;2023-06-26T16:17:35;2.17;;;0.40;;
40847;SDS011;26570;50.962;5.340;2023-06-26T16:20:25;3.33;;;0.30;;
40847;SDS011;26570;50.962;5.340;2023-06-26T16:23:13;2.50;;;0.20;;
40847;SDS011;26570;50.962;5.340;2023-06-26T16:26:01;1.25;;;0.25;;
40847;SDS011;26570;50.962;5.340;2023-06-26T16:28:49;2.38;;;0.22;;
40847;SDS011;26570;50.962;5.340;2023-06-26T16:31:37;2.03;;;0.20;;
40847;SDS011;26570;50.962;5.340;2023-06-26T16:34:25;1.60;;;0.20;;
40847;SDS011;26570;50.962;5.340;2023-06-26T16:37:14;1.35;;;0.30;;
40847;SDS011;26570;50.962;5.340;2023-06-26T16:40:05;2.88;;;0.20;;
40847;SDS011;26570;50.962;5.340;2023-06-26T16:42:53;2.67;;;0.20;;
40847;SDS011;26570;50.962;5.340;2023-06-26T16:45:50;1.52;;;0.30;;
40847;SDS011;26570;50.962;5.340;2023-06-26T16:48:39;0.70;;;0.20;;
40847;SDS011;26570;50.962;5.340;2023-06-26T16:51:28;3.60;;;0.30;;
40847;SDS011;26570;50.962;5.340;2023-06-26T16:54:16;3.85;;;0.20;;
40847;SDS011;26570;50.962;5.340;2023-06-26T16:57:04;2.72;;;0.20;;
40847;SDS011;26570;50.962;5.340;2023-06-26T16:59:54;2.72;;;0.22;;
40847;SDS011;26570;50.962;5.340;2023-06-26T17:02:44;2.35;;;0.30;;
40847;SDS011;26570;50.962;5.340;2023-06-26T17:05:31;2.25;;;0.20;;
40847;SDS011;26570;50.962;5.340;2023-06-26T17:08:20;1.17;;;0.20;;
40847;SDS011;26570;50.962;5.340;2023-06-26T17:11:08;5.25;;;0.22;;
40847;SDS011;26570;50.962;5.340;2023-06-26T17:13:57;2.00;;;0.13;;
40847;SDS011;26570;50.962;5.340;2023-06-26T17:16:47;1.65;;;0.20;;
40847;SDS011;26570;50.962;5.340;2023-06-26T17:19:34;2.72;;;0.40;;
40847;SDS011;26570;50.962;5.340;2023-06-26T17:22:22;1.42;;;0.20;;
40847;SDS011;26570;50.962;5.340;2023-06-26T17:25:11;1.60;;;0.20;;
40847;SDS011;26570;50.962;5.340;2023-06-26T17:27:59;2.22;;;0.30;;
40847;SDS011;26570;50.962;5.340;2023-06-26T17:30:47;1.33;;;0.20;;
40847;SDS011;26570;50.962;5.340;2023-06-26T17:33:35;1.17;;;0.28;;
40847;SDS011;26570;50.962;5.340;2023-06-26T17:36:24;2.15;;;0.25;;
40847;SDS011;26570;50.962;5.340;2023-06-26T17:39:12;3.47;;;0.82;;
40847;SDS011;26570;50.962;5.340;2023-06-26T17:42:00;2.47;;;0.20;;
40847;SDS011;26570;50.962;5.340;2023-06-26T17:44:49;1.25;;;0.20;;
40847;SDS011;26570;50.962;5.340;2023-06-26T17:47:38;1.55;;;0.22;;
40847;SDS011;26570;50.962;5.340;2023-06-26T17:50:26;1.38;;;0.20;;
40847;SDS011;26570;50.962;5.340;2023-06-26T17:53:15;1.92;;;0.20;;
40847;SDS011;26570;50.962;5.340;2023-06-26T17:56:05;0.98;;;0.20;;
40847;SDS011;26570;50.962;5.340;2023-06-26T17:58:53;1.05;;;0.10;;
40847;SDS011;26570;50.962;5.340;2023-06-26T18:01:41;1.30;;;0.20;;
40847;SDS011;26570;50.962;5.340;2023-06-26T18:04:30;1.98;;;0.20;;
40847;SDS011;26570;50.962;5.340;2023-06-26T18:07:22;2.58;;;0.20;;
40847;SDS011;26570;50.962;5.340;2023-06-26T18:10:11;1.00;;;0.10;;
40847;SDS011;26570;50.962;5.340;2023-06-26T18:12:59;0.80;;;0.20;;
40847;SDS011;26570;50.962;5.340;2023-06-26T18:15:48;2.83;;;0.20;;